createdAt,value
2023-04-05T00:00:00.906Z,4.78
2023-04-05T00:02:30.121Z,4.32
2023-04-05T00:04:58.637Z,4.30
2023-04-05T00:07:26.524Z,4.43
2023-04-05T00:09:53.843Z,4.53
2023-04-05T00:12:21.122Z,4.38
2023-04-05T00:14:48.491Z,4.47
2023-04-05T00:17:15.619Z,4.82
2023-04-05T00:19:43.106Z,4.47
2023-04-05T00:22:10.631Z,4.95
2023-04-05T00:24:43.621Z,4.32
2023-04-05T00:27:10.696Z,4.30
2023-04-05T00:29:37.971Z,4.03
2023-04-05T00:32:05.489Z,4.05
2023-04-05T00:34:33.710Z,4.78
2023-04-05T00:37:00.869Z,4.97
2023-04-05T00:39:27.821Z,4.53
2023-04-05T00:41:54.842Z,5.07
2023-04-05T00:44:21.791Z,4.32
2023-04-05T00:46:49.312Z,3.65
2023-04-05T00:49:17.473Z,4.30
2023-04-05T00:51:45.730Z,4.18
2023-04-05T00:54:14.244Z,4.13
2023-04-05T00:56:41.804Z,4.32
2023-04-05T00:59:09.595Z,4.10
2023-04-05T01:01:40.468Z,4.47
2023-04-05T01:04:11.377Z,4.75
2023-04-05T01:07:09.404Z,4.95
2023-04-05T01:09:59.656Z,4.05
2023-04-05T01:12:33.148Z,3.95
2023-04-05T01:15:01.269Z,3.05
2023-04-05T01:17:30.155Z,3.20
2023-04-05T01:20:00.317Z,3.50
2023-04-05T01:23:04.826Z,4.13
2023-04-05T01:25:36.853Z,3.83
2023-04-05T01:28:36.400Z,3.50
2023-04-05T01:31:15.724Z,3.83
2023-04-05T01:33:51.452Z,3.40
2023-04-05T01:36:34.041Z,3.70
2023-04-05T01:39:03.858Z,3.50
2023-04-05T01:41:31.606Z,3.35
2023-04-05T01:43:58.812Z,3.38
2023-04-05T01:46:25.816Z,3.65
2023-04-05T01:48:52.876Z,3.92
2023-04-05T01:51:21.213Z,3.63
2023-04-05T01:53:48.109Z,3.45
2023-04-05T01:56:18.033Z,3.35
2023-04-05T01:58:45.060Z,3.63
2023-04-05T02:01:12.497Z,3.35
2023-04-05T02:03:39.570Z,3.28
2023-04-05T02:06:06.798Z,3.05
2023-04-05T02:08:33.615Z,3.00
2023-04-05T02:11:00.681Z,3.53
2023-04-05T02:13:27.768Z,3.20
2023-04-05T02:15:54.748Z,3.13
2023-04-05T02:18:22.386Z,3.00
2023-04-05T02:20:50.821Z,3.15
2023-04-05T02:23:21.739Z,3.30
2023-04-05T02:25:48.714Z,3.17
2023-04-05T02:28:15.847Z,3.22
2023-04-05T02:30:43.199Z,2.90
2023-04-05T02:33:10.910Z,2.45
2023-04-05T02:35:37.785Z,3.20
2023-04-05T02:38:08.629Z,2.90
2023-04-05T02:40:35.533Z,3.10
2023-04-05T02:43:02.647Z,2.75
2023-04-05T02:45:29.676Z,3.17
2023-04-05T02:47:58.838Z,3.28
2023-04-05T02:50:29.024Z,3.10
2023-04-05T02:52:56.141Z,3.00
2023-04-05T02:55:23.187Z,2.75
2023-04-05T02:57:50.126Z,2.72
2023-04-05T03:00:28.201Z,3.15
2023-04-05T03:02:57.457Z,2.65
2023-04-05T03:05:24.413Z,3.25
2023-04-05T03:07:53.430Z,2.80
2023-04-05T03:10:29.256Z,2.85
2023-04-05T03:13:03.057Z,2.70
2023-04-05T03:15:33.009Z,2.88
2023-04-05T03:18:05.141Z,2.85
2023-04-05T03:20:35.588Z,2.80
2023-04-05T03:23:03.692Z,2.90
2023-04-05T03:25:37.452Z,3.10
2023-04-05T03:28:06.912Z,2.75
2023-04-05T03:30:35.395Z,3.05
2023-04-05T03:33:13.992Z,3.28
2023-04-05T03:35:45.374Z,2.33
2023-04-05T03:38:13.607Z,3.35
2023-04-05T03:41:03.418Z,2.35
2023-04-05T03:43:30.708Z,2.70
2023-04-05T03:45:57.749Z,2.88
2023-04-05T03:48:27.661Z,3.13
2023-04-05T03:50:54.697Z,2.38
2023-04-05T03:53:21.799Z,2.70
2023-04-05T03:55:55.782Z,2.70
2023-04-05T03:58:40.484Z,2.60
2023-04-05T04:01:08.564Z,2.38
2023-04-05T04:03:37.410Z,2.55
2023-04-05T04:06:07.620Z,2.65
2023-04-05T04:08:34.711Z,2.95
2023-04-05T04:11:01.813Z,3.05
2023-04-05T04:13:32.948Z,2.72
2023-04-05T04:16:08.644Z,2.55
2023-04-05T04:18:45.805Z,2.40
2023-04-05T04:21:52.106Z,2.45
2023-04-05T04:24:40.814Z,2.55
2023-04-05T04:27:26.030Z,2.47
2023-04-05T04:30:04.376Z,2.88
2023-04-05T04:32:52.109Z,2.63
2023-04-05T04:35:40.147Z,2.77
2023-04-05T04:38:27.129Z,2.60
2023-04-05T04:41:26.739Z,3.88
2023-04-05T04:44:03.313Z,3.28
2023-04-05T04:46:54.774Z,3.38
2023-04-05T04:49:41.705Z,3.00
2023-04-05T04:52:08.905Z,2.80
2023-04-05T04:54:42.522Z,2.92
2023-04-05T04:57:09.605Z,2.92
2023-04-05T04:59:36.594Z,3.20
2023-04-05T05:02:05.936Z,2.95
2023-04-05T05:04:34.489Z,2.80
2023-04-05T05:07:01.593Z,2.50
2023-04-05T05:09:28.505Z,2.88
2023-04-05T05:11:59.537Z,2.67
2023-04-05T05:14:26.581Z,3.00
2023-04-05T05:16:54.737Z,3.17
2023-04-05T05:19:22.342Z,3.05
2023-04-05T05:21:54.065Z,2.95
2023-04-05T05:24:21.480Z,3.10
2023-04-05T05:26:48.369Z,2.97
2023-04-05T05:29:17.967Z,2.75
2023-04-05T05:31:46.088Z,2.78
2023-04-05T05:34:12.981Z,3.17
2023-04-05T05:36:43.716Z,2.78
2023-04-05T05:39:10.681Z,2.72
2023-04-05T05:41:37.650Z,2.80
2023-04-05T05:44:05.837Z,2.78
2023-04-05T05:46:32.958Z,3.08
2023-04-05T05:48:59.806Z,2.90
2023-04-05T05:51:26.755Z,3.10
2023-04-05T05:53:53.662Z,3.05
2023-04-05T05:56:21.016Z,2.85
2023-04-05T05:58:48.145Z,2.45
2023-04-05T06:01:15.252Z,3.42
2023-04-05T06:03:42.298Z,3.47
2023-04-05T06:06:11.332Z,2.95
2023-04-05T06:08:38.543Z,2.70
2023-04-05T06:11:05.650Z,3.17
2023-04-05T06:13:32.561Z,2.83
2023-04-05T06:16:01.863Z,2.80
2023-04-05T06:18:28.924Z,2.55
2023-04-05T06:20:56.101Z,2.88
2023-04-05T06:23:23.417Z,3.33
2023-04-05T06:25:50.451Z,2.85
2023-04-05T06:28:17.563Z,3.00
2023-04-05T06:30:45.098Z,3.08
2023-04-05T06:33:12.161Z,2.97
2023-04-05T06:35:39.177Z,2.70
2023-04-05T06:38:06.301Z,2.85
2023-04-05T06:40:33.147Z,3.30
2023-04-05T06:43:00.325Z,3.22
2023-04-05T06:45:31.525Z,2.75
2023-04-05T06:48:02.789Z,2.63
2023-04-05T06:50:29.968Z,2.75
2023-04-05T06:52:57.156Z,2.70
2023-04-05T06:55:24.209Z,2.83
2023-04-05T06:57:51.151Z,3.10
2023-04-05T07:00:18.691Z,2.53
2023-04-05T07:02:45.703Z,2.53
2023-04-05T07:05:12.724Z,2.80
2023-04-05T07:07:42.421Z,2.30
2023-04-05T07:10:09.751Z,2.58
2023-04-05T07:12:37.285Z,3.00
2023-04-05T07:15:04.823Z,2.40
2023-04-05T07:17:32.025Z,2.35
2023-04-05T07:19:58.999Z,2.72
2023-04-05T07:22:26.810Z,3.00
2023-04-05T07:24:55.709Z,3.05
2023-04-05T07:27:22.877Z,2.65
2023-04-05T07:29:49.874Z,3.03
2023-04-05T07:32:17.096Z,2.80
2023-04-05T07:34:43.993Z,3.20
2023-04-05T07:37:11.337Z,3.13
2023-04-05T07:39:38.350Z,2.75
2023-04-05T07:42:05.746Z,3.05
2023-04-05T07:44:32.663Z,3.10
2023-04-05T07:46:59.664Z,3.20
2023-04-05T07:49:27.714Z,3.22
2023-04-05T07:51:58.133Z,2.80
2023-04-05T07:54:25.150Z,2.83
2023-04-05T07:56:53.452Z,2.85
2023-04-05T07:59:20.424Z,3.10
2023-04-05T08:01:47.398Z,2.90
2023-04-05T08:04:14.741Z,2.42
2023-04-05T08:06:41.868Z,3.10
2023-04-05T08:09:09.189Z,2.90
2023-04-05T08:11:36.247Z,3.50
2023-04-05T08:14:03.209Z,3.33
2023-04-05T08:16:30.934Z,3.03
2023-04-05T08:18:58.194Z,3.45
2023-04-05T08:21:26.644Z,3.05
2023-04-05T08:23:53.765Z,2.78
2023-04-05T08:26:21.026Z,3.08
2023-04-05T08:28:48.014Z,3.50
2023-04-05T08:31:15.003Z,3.20
2023-04-05T08:33:41.813Z,3.25
2023-04-05T08:36:10.120Z,3.70
2023-04-05T08:38:38.517Z,3.33
2023-04-05T08:41:18.174Z,2.83
2023-04-05T08:43:57.994Z,3.30
2023-04-05T08:46:26.539Z,3.53
2023-04-05T08:48:53.652Z,3.28
2023-04-05T08:51:26.738Z,3.00
2023-04-05T08:53:54.535Z,3.13
2023-04-05T08:56:25.917Z,3.40
2023-04-05T08:59:06.732Z,3.40
2023-04-05T09:01:37.776Z,3.75
2023-04-05T09:04:13.001Z,3.53
2023-04-05T09:06:40.673Z,3.30
2023-04-05T09:09:08.771Z,3.90
2023-04-05T09:11:36.196Z,3.42
2023-04-05T09:14:07.291Z,3.33
2023-04-05T09:16:38.031Z,4.32
2023-04-05T09:19:05.834Z,4.05
2023-04-05T09:21:59.129Z,4.07
2023-04-05T09:24:39.766Z,3.88
2023-04-05T09:27:17.784Z,3.78
2023-04-05T09:29:49.513Z,4.00
2023-04-05T09:32:18.390Z,3.70
2023-04-05T09:34:45.907Z,3.22
2023-04-05T09:37:23.174Z,3.40
2023-04-05T09:39:52.231Z,3.75
2023-04-05T09:42:23.323Z,3.60
2023-04-05T09:45:03.010Z,4.00
2023-04-05T09:47:49.949Z,3.80
2023-04-05T09:50:18.301Z,3.95
2023-04-05T09:52:46.277Z,4.10
2023-04-05T09:55:13.896Z,3.92
2023-04-05T09:57:44.102Z,4.25
2023-04-05T10:00:19.502Z,3.88
2023-04-05T10:02:52.124Z,4.10
2023-04-05T10:05:19.312Z,3.80
2023-04-05T10:07:46.282Z,4.15
2023-04-05T10:10:16.060Z,4.05
2023-04-05T10:12:43.176Z,3.75
2023-04-05T10:15:12.278Z,4.40
2023-04-05T10:18:04.306Z,4.03
2023-04-05T10:20:33.508Z,4.03
2023-04-05T10:23:22.722Z,4.00
2023-04-05T10:25:55.296Z,3.80
2023-04-05T10:28:36.228Z,4.82
2023-04-05T10:31:37.685Z,3.67
2023-04-05T10:34:06.668Z,4.20
2023-04-05T10:36:50.430Z,4.13
2023-04-05T10:39:46.665Z,4.13
2023-04-05T10:45:04.889Z,4.40
2023-04-05T10:47:36.916Z,4.28
2023-04-05T10:50:08.678Z,4.50
2023-04-05T10:55:04.422Z,4.43
2023-04-05T10:57:32.548Z,4.50
2023-04-05T11:00:00.176Z,4.80
2023-04-05T11:02:30.411Z,4.63
2023-04-05T11:04:57.756Z,4.13
2023-04-05T11:07:24.932Z,4.40
2023-04-05T11:10:18.503Z,4.72
2023-04-05T11:12:52.509Z,5.03
2023-04-05T11:15:32.797Z,4.88
2023-04-05T11:18:20.659Z,4.88
2023-04-05T11:20:51.917Z,4.70
2023-04-05T11:23:24.870Z,4.47
2023-04-05T11:25:53.439Z,4.60
2023-04-05T11:28:26.227Z,4.75
2023-04-05T11:30:59.166Z,5.03
2023-04-05T11:34:10.124Z,4.95
2023-04-05T11:36:38.510Z,4.75
2023-04-05T11:39:23.792Z,4.75
2023-04-05T11:42:09.698Z,4.72
2023-04-05T11:44:48.532Z,4.57
2023-04-05T11:47:23.375Z,5.28
2023-04-05T11:49:51.354Z,4.30
2023-04-05T11:52:22.209Z,5.25
2023-04-05T11:54:49.950Z,4.55
2023-04-05T11:57:22.915Z,4.75
2023-04-05T11:59:52.104Z,4.85
2023-04-05T12:02:19.862Z,4.75
2023-04-05T12:04:55.794Z,4.85
2023-04-05T12:07:26.696Z,4.72
2023-04-05T12:10:12.108Z,5.33
2023-04-05T12:12:41.054Z,4.97
2023-04-05T12:15:12.691Z,4.85
2023-04-05T12:17:41.348Z,4.90
2023-04-05T12:20:09.193Z,5.15
2023-04-05T12:22:38.286Z,4.97
2023-04-05T12:25:06.252Z,5.22
2023-04-05T12:27:33.734Z,5.43
2023-04-05T12:30:36.404Z,4.78
2023-04-05T12:33:11.383Z,5.05
2023-04-05T12:35:39.687Z,4.80
2023-04-05T12:38:08.078Z,5.60
2023-04-05T12:40:35.999Z,4.82
2023-04-05T12:43:06.369Z,4.80
2023-04-05T12:45:43.713Z,5.38
2023-04-05T12:48:14.346Z,5.22
2023-04-05T12:50:48.583Z,4.93
2023-04-05T12:53:20.991Z,5.70
2023-04-05T12:55:55.233Z,5.38
2023-04-05T12:58:24.165Z,5.32
2023-04-05T13:00:51.113Z,5.45
2023-04-05T13:03:21.216Z,5.25
2023-04-05T13:05:49.366Z,5.53
2023-04-05T13:08:19.487Z,5.38
2023-04-05T13:10:47.565Z,5.28
2023-04-05T13:13:16.475Z,5.07
2023-04-05T13:15:44.797Z,5.45
2023-04-05T13:18:14.801Z,4.88
2023-04-05T13:20:45.321Z,5.80
2023-04-05T13:23:13.074Z,6.07
2023-04-05T13:25:45.492Z,5.55
2023-04-05T13:28:12.864Z,6.00
2023-04-05T13:30:39.707Z,5.40
2023-04-05T13:33:06.847Z,6.20
2023-04-05T13:35:33.952Z,5.70
2023-04-05T13:38:04.341Z,5.43
2023-04-05T13:40:32.343Z,5.57
2023-04-05T13:42:59.471Z,6.13
2023-04-05T13:45:27.624Z,5.78
2023-04-05T13:47:55.006Z,5.55
2023-04-05T13:50:21.941Z,5.20
2023-04-05T13:52:48.843Z,6.18
2023-04-05T13:55:15.783Z,5.57
2023-04-05T13:57:42.977Z,5.30
2023-04-05T14:00:10.868Z,6.00
2023-04-05T14:02:41.558Z,6.22
2023-04-05T14:05:09.309Z,5.97
2023-04-05T14:07:36.632Z,6.10
2023-04-05T14:10:03.796Z,5.53
2023-04-05T14:12:31.665Z,5.90
2023-04-05T14:15:00.305Z,5.55
2023-04-05T14:17:27.433Z,5.47
2023-04-05T14:19:54.427Z,5.97
2023-04-05T14:22:22.464Z,5.88
2023-04-05T14:24:49.569Z,5.95
2023-04-05T14:27:16.498Z,5.50
2023-04-05T14:29:45.820Z,6.20
2023-04-05T14:32:13.011Z,5.95
2023-04-05T14:34:40.302Z,5.90
2023-04-05T14:37:07.934Z,5.95
2023-04-05T14:39:35.038Z,5.82
2023-04-05T14:42:02.420Z,6.40
2023-04-05T14:44:29.445Z,6.00
2023-04-05T14:46:56.578Z,6.10
2023-04-05T14:49:23.706Z,5.88
2023-04-05T14:51:50.842Z,6.40
2023-04-05T14:54:18.673Z,5.88
2023-04-05T14:56:45.674Z,5.88
2023-04-05T14:59:12.752Z,5.88
2023-04-05T15:01:42.585Z,5.80
2023-04-05T15:04:09.711Z,5.80
2023-04-05T15:06:37.942Z,5.70
2023-04-05T15:09:05.155Z,5.40
2023-04-05T15:11:35.668Z,5.20
2023-04-05T15:14:02.746Z,5.28
2023-04-05T15:16:30.621Z,5.95
2023-04-05T15:18:59.183Z,6.13
2023-04-05T15:21:26.144Z,6.05
2023-04-05T15:23:53.371Z,5.93
2023-04-05T15:26:21.077Z,6.35
2023-04-05T15:28:48.013Z,6.28
2023-04-05T15:31:15.023Z,5.60
2023-04-05T15:33:41.915Z,5.72
2023-04-05T15:36:08.981Z,5.32
2023-04-05T15:38:36.017Z,5.50
2023-04-05T15:41:02.921Z,5.30
2023-04-05T15:43:32.374Z,5.85
2023-04-05T15:45:59.371Z,5.28
2023-04-05T15:48:26.366Z,5.95
2023-04-05T15:50:53.229Z,5.82
2023-04-05T15:53:20.406Z,5.72
2023-04-05T15:55:47.387Z,5.50
2023-04-05T15:58:14.583Z,5.20
2023-04-05T16:00:41.727Z,5.75
2023-04-05T16:03:09.089Z,5.50
2023-04-05T16:05:36.510Z,5.60
2023-04-05T16:08:03.466Z,5.93
2023-04-05T16:10:30.665Z,5.95
2023-04-05T16:13:31.033Z,5.95
2023-04-05T16:15:58.257Z,5.05
2023-04-05T16:18:26.166Z,6.10
2023-04-05T16:20:53.183Z,5.85
2023-04-05T16:23:20.372Z,5.70
2023-04-05T16:25:47.643Z,5.95
2023-04-05T16:28:14.528Z,6.13
2023-04-05T16:30:42.249Z,5.88
2023-04-05T16:33:09.149Z,5.43
2023-04-05T16:35:36.275Z,5.57
2023-04-05T16:38:04.235Z,6.32
2023-04-05T16:40:32.806Z,5.97
2023-04-05T16:42:59.806Z,5.85
2023-04-05T16:45:28.757Z,6.07
2023-04-05T16:47:55.974Z,5.40
2023-04-05T16:50:23.208Z,4.55
2023-04-05T16:52:50.554Z,3.63
2023-04-05T16:55:17.601Z,3.65
2023-04-05T16:57:44.610Z,3.50
2023-04-05T17:00:12.553Z,3.00
2023-04-05T17:02:39.735Z,3.08
2023-04-05T17:05:07.258Z,3.05
2023-04-05T17:07:34.365Z,3.20
2023-04-05T17:10:04.652Z,3.35
2023-04-05T17:12:34.626Z,3.05
2023-04-05T17:15:03.299Z,2.88
2023-04-05T17:17:30.778Z,3.40
2023-04-05T17:19:57.662Z,3.25
2023-04-05T17:22:24.707Z,3.10
2023-04-05T17:24:51.769Z,3.25
2023-04-05T17:27:20.469Z,3.40
2023-04-05T17:29:47.509Z,3.40
2023-04-05T17:32:14.640Z,3.22
2023-04-05T17:34:41.909Z,3.10
2023-04-05T17:37:08.987Z,3.03
2023-04-05T17:39:36.596Z,3.38
2023-04-05T17:42:03.681Z,2.92
2023-04-05T17:44:30.872Z,3.05
2023-04-05T17:47:08.721Z,3.33
2023-04-05T17:49:37.783Z,3.22
2023-04-05T17:52:06.152Z,2.92
2023-04-05T17:54:47.345Z,3.00
2023-04-05T17:57:17.185Z,2.35
2023-04-05T17:59:49.431Z,2.58
2023-04-05T18:02:16.713Z,2.70
2023-04-05T18:04:44.356Z,2.80
2023-04-05T18:07:12.344Z,2.47
2023-04-05T18:09:42.030Z,2.80
2023-04-05T18:12:09.606Z,2.67
2023-04-05T18:14:37.074Z,2.63
2023-04-05T18:17:07.516Z,2.45
2023-04-05T18:19:34.758Z,2.45
2023-04-05T18:22:01.830Z,2.47
2023-04-05T18:24:29.318Z,2.58
2023-04-05T18:26:57.395Z,2.55
2023-04-05T18:29:28.581Z,2.60
2023-04-05T18:31:56.617Z,2.58
2023-04-05T18:34:24.062Z,3.10
2023-04-05T18:36:51.276Z,3.00
2023-04-05T18:39:20.063Z,3.45
2023-04-05T18:41:48.275Z,4.47
2023-04-05T18:44:15.565Z,5.05
2023-04-05T18:46:42.614Z,4.50
2023-04-05T18:49:09.899Z,4.00
2023-04-05T18:51:37.366Z,4.05
2023-04-05T18:54:04.554Z,4.28
2023-04-05T18:56:31.658Z,4.68
2023-04-05T18:58:58.946Z,4.40
2023-04-05T19:01:26.200Z,4.63
2023-04-05T19:03:53.167Z,4.47
2023-04-05T19:06:22.867Z,6.35
2023-04-05T19:08:49.908Z,6.80
2023-04-05T19:11:19.645Z,4.82
2023-04-05T19:13:46.958Z,4.40
2023-04-05T19:16:14.074Z,4.78
2023-04-05T19:18:41.087Z,4.85
2023-04-05T19:21:08.801Z,3.97
2023-04-05T19:23:36.866Z,4.20
2023-04-05T19:26:03.900Z,4.43
2023-04-05T19:28:30.921Z,5.20
2023-04-05T19:30:57.941Z,4.07
2023-04-05T19:33:24.868Z,5.00
2023-04-05T19:35:52.064Z,4.95
2023-04-05T19:38:21.265Z,5.28
2023-04-05T19:40:48.404Z,4.60
2023-04-05T19:43:15.725Z,4.45
2023-04-05T19:45:43.217Z,4.35
2023-04-05T19:48:34.923Z,4.60
2023-04-05T19:51:05.665Z,4.50
2023-04-05T19:53:39.814Z,4.55
2023-04-05T19:56:15.156Z,4.53
2023-04-05T19:58:43.202Z,4.90
2023-04-05T20:01:10.478Z,8.20
2023-04-05T20:03:39.495Z,15.75
2023-04-05T20:06:11.273Z,11.65
2023-04-05T20:08:48.007Z,7.50
2023-04-05T20:11:22.033Z,6.07
2023-04-05T20:13:58.859Z,7.40
2023-04-05T20:16:26.995Z,5.57
2023-04-05T20:18:56.880Z,5.80
2023-04-05T20:21:24.334Z,7.43
2023-04-05T20:23:51.395Z,6.22
2023-04-05T20:26:24.740Z,7.38
2023-04-05T20:28:55.988Z,6.43
2023-04-05T20:31:32.867Z,5.93
2023-04-05T20:34:24.514Z,4.82
2023-04-05T20:36:54.790Z,3.60
2023-04-05T20:39:23.737Z,4.78
2023-04-05T20:41:51.111Z,6.00
2023-04-05T20:44:18.395Z,6.35
2023-04-05T20:46:45.446Z,5.80
2023-04-05T20:49:12.726Z,5.47
2023-04-05T20:51:41.884Z,5.20
2023-04-05T20:54:09.774Z,5.50
2023-04-05T20:56:36.636Z,5.70
2023-04-05T20:59:03.621Z,5.70
2023-04-05T21:01:30.641Z,6.10
2023-04-05T21:03:57.810Z,5.80
2023-04-05T21:06:24.870Z,6.55
2023-04-05T21:08:51.768Z,6.53
2023-04-05T21:11:18.745Z,7.25
2023-04-05T21:13:45.928Z,5.45
2023-04-05T21:16:13.062Z,5.60
2023-04-05T21:18:40.069Z,6.47
2023-04-05T21:21:07.064Z,7.60
2023-04-05T21:23:34.649Z,7.65
2023-04-05T21:26:02.303Z,7.05
2023-04-05T21:28:29.190Z,6.53
2023-04-05T21:30:56.365Z,5.80
2023-04-05T21:33:24.594Z,5.30
2023-04-05T21:35:51.899Z,4.68
2023-04-05T21:38:19.178Z,5.25
2023-04-05T21:40:46.651Z,4.80
2023-04-05T21:43:13.905Z,5.20
2023-04-05T21:45:41.034Z,4.80
2023-04-05T21:48:08.458Z,5.15
2023-04-05T21:50:35.666Z,5.00
2023-04-05T21:53:02.800Z,5.28
2023-04-05T21:55:29.753Z,5.75
2023-04-05T21:57:56.771Z,5.95
2023-04-05T22:00:23.811Z,4.65
2023-04-05T22:02:51.144Z,4.63
2023-04-05T22:05:34.074Z,5.20
2023-04-05T22:08:05.972Z,4.78
2023-04-05T22:10:33.720Z,4.50
2023-04-05T22:13:00.898Z,4.55
2023-04-05T22:15:27.849Z,5.10
2023-04-05T22:17:54.848Z,4.75
2023-04-05T22:20:21.744Z,5.35
2023-04-05T22:22:48.708Z,5.43
2023-04-05T22:25:17.899Z,8.05
2023-04-05T22:27:44.816Z,6.95
2023-04-05T22:30:12.249Z,8.57
2023-04-05T22:32:39.265Z,7.80
2023-04-05T22:35:06.804Z,9.40
2023-04-05T22:37:36.462Z,8.35
2023-04-05T22:40:04.629Z,10.77
2023-04-05T22:42:32.109Z,8.48
2023-04-05T22:44:59.247Z,9.27
2023-04-05T22:47:26.431Z,7.53
2023-04-05T22:49:53.720Z,5.30
2023-04-05T22:52:21.034Z,5.57
2023-04-05T22:54:48.117Z,5.13
2023-04-05T22:57:15.264Z,5.80
2023-04-05T22:59:42.430Z,5.70
2023-04-05T23:02:09.929Z,5.32
2023-04-05T23:04:37.086Z,5.18
2023-04-05T23:07:04.327Z,5.18
2023-04-05T23:09:31.573Z,5.15
2023-04-05T23:11:58.481Z,5.10
2023-04-05T23:14:25.737Z,5.60
2023-04-05T23:16:52.734Z,5.47
2023-04-05T23:19:19.883Z,5.00
2023-04-05T23:21:46.821Z,5.32
2023-04-05T23:24:13.797Z,5.55
2023-04-05T23:26:41.018Z,5.03
2023-04-05T23:29:08.100Z,5.60
2023-04-05T23:31:35.346Z,5.53
2023-04-05T23:34:02.653Z,4.78
2023-04-05T23:36:29.617Z,5.30
2023-04-05T23:38:58.646Z,5.38
2023-04-05T23:41:25.764Z,4.80
2023-04-05T23:43:52.853Z,4.88
2023-04-05T23:46:19.926Z,5.38
2023-04-05T23:48:47.335Z,5.25
2023-04-05T23:51:14.311Z,5.38
2023-04-05T23:53:41.659Z,5.38
2023-04-05T23:56:08.983Z,5.55
2023-04-05T23:58:36.135Z,5.00
